Time;durP1;ratioP1;P1;durP2;ratioP2;P2;SDS_P1;SDS_P2;PMS_P1;PMS_P2;Temp;Humidity;BMP_temperature;BMP_pressure;BME280_temperature;BME280_humidity;BME280_pressure;Samples;Min_cycle;Max_cycle;Signal;HPM_P1;HPM_P2
2022/01/12 00:00:08;;;;;;;1.00;1.00;;;1.00;99.90;;;;;;5052048;28;20753;-65
2022/01/12 00:02:35;;;;;;;1.13;1.13;;;0.90;99.90;;;;;;5051129;28;20667;-64
2022/01/12 00:05:02;;;;;;;1.00;1.00;;;0.90;99.90;;;;;;5052833;28;20228;-66
2022/01/12 00:07:29;;;;;;;1.20;1.20;;;0.90;99.90;;;;;;5048094;28;20235;-66
2022/01/12 00:09:56;;;;;;;1.30;1.30;;;0.80;99.90;;;;;;5052250;28;20251;-66
2022/01/12 00:12:23;;;;;;;1.43;1.43;;;0.80;99.90;;;;;;5054334;28;20257;-65
2022/01/12 00:14:52;;;;;;;1.17;1.17;;;0.80;99.90;;;;;;5052053;28;20236;-65
2022/01/12 00:17:19;;;;;;;1.17;1.17;;;0.80;99.90;;;;;;5052202;28;20287;-65
2022/01/12 00:19:45;;;;;;;1.10;1.10;;;0.80;99.90;;;;;;5053058;28;20212;-65
2022/01/12 00:22:14;;;;;;;1.40;1.40;;;0.80;99.90;;;;;;5052115;28;20207;-64
2022/01/12 00:25:03;;;;;;;1.20;1.20;;;0.90;99.90;;;;;;5051951;28;20227;-65
2022/01/12 00:33:11;;;;;;;1.10;1.10;;;0.70;99.90;;;;;;5052329;28;20301;-65
2022/01/12 00:35:39;;;;;;;1.20;1.20;;;0.70;99.90;;;;;;5074563;28;20198;-65
2022/01/12 00:38:06;;;;;;;1.20;1.20;;;0.70;99.90;;;;;;5075205;28;20238;-67
2022/01/12 00:40:34;;;;;;;1.30;1.30;;;0.70;99.90;;;;;;5076578;28;20283;-66
2022/01/12 00:43:01;;;;;;;1.27;1.27;;;0.70;99.90;;;;;;5073599;28;20204;-63
2022/01/12 00:45:29;;;;;;;1.40;1.30;;;0.70;99.90;;;;;;5057400;28;20438;-65
2022/01/12 00:47:56;;;;;;;1.20;1.20;;;0.70;99.90;;;;;;5059875;28;20200;-63
2022/01/12 00:50:23;;;;;;;1.17;1.17;;;0.80;99.90;;;;;;5060093;28;20243;-65
2022/01/12 00:52:50;;;;;;;1.20;1.20;;;0.90;99.90;;;;;;5073779;28;20207;-64
2022/01/12 00:55:17;;;;;;;1.20;1.20;;;0.90;99.90;;;;;;5065488;28;20258;-65
2022/01/12 00:57:44;;;;;;;1.00;1.00;;;0.80;99.90;;;;;;5055964;28;20259;-64
2022/01/12 01:00:12;;;;;;;1.15;1.13;;;0.80;99.90;;;;;;5056146;28;20287;-64
2022/01/12 01:02:41;;;;;;;1.20;1.20;;;0.80;99.90;;;;;;5070489;28;20196;-65
2022/01/12 01:05:08;;;;;;;1.10;1.10;;;0.80;99.90;;;;;;5076264;28;20192;-67
2022/01/12 01:07:35;;;;;;;1.10;1.10;;;0.80;99.90;;;;;;5074608;28;20192;-67
2022/01/12 01:10:05;;;;;;;1.13;1.13;;;0.80;99.90;;;;;;5061658;28;20299;-65
2022/01/12 01:12:33;;;;;;;1.30;1.30;;;0.70;99.90;;;;;;5050180;28;20230;-65
2022/01/12 01:15:05;;;;;;;1.20;1.20;;;0.70;99.90;;;;;;5051992;28;20258;-65
2022/01/12 01:25:47;;;;;;;1.20;1.20;;;0.60;99.90;;;;;;5052404;28;20272;-64
2022/01/12 01:28:17;;;;;;;1.10;1.10;;;0.50;99.90;;;;;;5052041;28;20235;-64
2022/01/12 01:30:46;;;;;;;1.20;1.20;;;0.50;99.90;;;;;;5052297;28;20246;-65
2022/01/12 01:33:16;;;;;;;1.20;1.20;;;0.50;99.90;;;;;;5051946;28;20224;-65
2022/01/12 01:35:53;;;;;;;1.50;1.50;;;0.40;99.90;;;;;;5052254;28;20681;-65
2022/01/12 01:38:20;;;;;;;1.02;1.02;;;0.30;99.90;;;;;;5052178;28;20230;-64
2022/01/12 01:40:47;;;;;;;1.27;1.27;;;0.20;99.90;;;;;;5052582;28;20282;-65
2022/01/12 01:43:22;;;;;;;1.20;1.20;;;0.20;99.90;;;;;;5051414;28;20253;-64
2022/01/12 01:54:07;;;;;;;1.20;1.20;;;0.20;99.90;;;;;;5052934;28;20222;-64
2022/01/12 01:56:34;;;;;;;1.20;1.20;;;0.20;99.90;;;;;;5052339;28;20257;-64
2022/01/12 01:59:01;;;;;;;1.10;1.10;;;0.20;99.90;;;;;;5051688;28;20226;-64
2022/01/12 02:01:28;;;;;;;1.23;1.13;;;0.20;99.90;;;;;;5052116;28;20227;-64
2022/01/12 02:03:58;;;;;;;1.20;1.20;;;0.20;99.90;;;;;;5052151;28;20321;-65
2022/01/12 02:06:28;;;;;;;1.20;1.20;;;0.30;99.90;;;;;;5052826;28;20203;-66
2022/01/12 02:08:55;;;;;;;1.37;1.30;;;0.20;99.90;;;;;;5050847;28;20354;-63
2022/01/12 02:11:26;;;;;;;1.30;1.30;;;0.20;99.90;;;;;;5052000;28;20282;-64
2022/01/12 02:13:54;;;;;;;1.27;1.27;;;0.30;99.90;;;;;;5053651;28;20746;-65
2022/01/12 02:16:26;;;;;;;1.20;1.20;;;0.40;99.90;;;;;;5056095;28;20600;-64
2022/01/12 02:19:10;;;;;;;1.20;1.20;;;0.50;99.90;;;;;;5055173;28;20250;-64
2022/01/12 02:35:49;;;;;;;1.20;1.20;;;0.30;99.90;;;;;;5014278;28;20184;-64
2022/01/12 02:41:03;;;;;;;1.30;1.30;;;0.20;99.90;;;;;;5055447;28;20206;-64
2022/01/12 02:50:34;;;;;;;1.17;1.17;;;0.10;99.90;;;;;;5055248;28;20227;-65
2022/01/12 02:54:43;;;;;;;1.30;1.30;;;0.00;99.90;;;;;;4993168;28;20261;-64
2022/01/12 02:57:10;;;;;;;1.30;1.30;;;0.00;99.90;;;;;;4998835;28;20206;-64
2022/01/12 02:59:39;;;;;;;1.60;1.50;;;0.00;99.90;;;;;;4997976;28;20332;-65
2022/01/12 03:02:18;;;;;;;1.20;1.20;;;0.00;99.90;;;;;;5002747;28;20214;-65
2022/01/12 03:04:58;;;;;;;1.20;1.20;;;0.00;99.90;;;;;;4996725;28;20244;-65
2022/01/12 03:07:30;;;;;;;1.10;1.10;;;0.00;99.90;;;;;;4993330;28;20791;-65
2022/01/12 03:09:58;;;;;;;1.10;1.10;;;0.10;99.90;;;;;;4992950;28;20229;-64
2022/01/12 03:12:25;;;;;;;1.30;1.30;;;0.00;99.90;;;;;;4992811;28;20297;-63
2022/01/12 03:14:52;;;;;;;1.00;1.00;;;0.10;99.90;;;;;;4992943;28;20317;-64
2022/01/12 03:17:20;;;;;;;1.10;1.10;;;0.10;99.90;;;;;;4992662;28;20304;-65
2022/01/12 03:19:47;;;;;;;1.25;1.25;;;0.10;99.90;;;;;;4993118;28;20230;-66
2022/01/12 03:22:14;;;;;;;1.10;1.10;;;0.10;99.90;;;;;;4993191;28;20301;-64
2022/01/12 03:24:42;;;;;;;1.10;1.10;;;0.00;99.90;;;;;;4992244;28;20249;-65
2022/01/12 03:27:13;;;;;;;1.10;1.10;;;0.00;99.90;;;;;;4992034;28;20216;-64
2022/01/12 03:29:42;;;;;;;1.25;1.25;;;-0.10;99.90;;;;;;5024552;28;20619;-66
2022/01/12 03:32:11;;;;;;;1.30;1.30;;;-0.10;99.90;;;;;;5035876;28;20347;-66
2022/01/12 03:34:41;;;;;;;1.30;1.30;;;-0.10;99.90;;;;;;5070905;22;20739;-61
2022/01/12 03:37:39;;;;;;;1.20;1.20;;;-0.10;99.90;;;;;;5070828;28;20218;-64
2022/01/12 03:40:06;;;;;;;1.13;1.13;;;-0.20;99.90;;;;;;5074754;28;20199;-62
2022/01/12 03:42:34;;;;;;;1.30;1.30;;;-0.20;99.90;;;;;;5075531;28;20207;-62
2022/01/12 03:45:01;;;;;;;1.20;1.20;;;-0.20;99.90;;;;;;5074480;28;20688;-60
2022/01/12 03:47:28;;;;;;;1.20;1.20;;;-0.20;99.90;;;;;;5074809;28;20616;-63
2022/01/12 03:49:55;;;;;;;1.30;1.30;;;-0.20;99.90;;;;;;5074386;28;20199;-62
2022/01/12 03:52:22;;;;;;;1.23;1.23;;;-0.30;99.90;;;;;;5074054;28;20294;-62
2022/01/12 03:54:49;;;;;;;1.33;1.27;;;-0.30;99.90;;;;;;5073685;28;20323;-62
2022/01/12 03:57:16;;;;;;;1.25;1.25;;;-0.30;99.90;;;;;;5074128;28;20290;-63
2022/01/12 03:59:44;;;;;;;1.20;1.20;;;-0.30;99.90;;;;;;5074501;28;20294;-61
2022/01/12 04:02:11;;;;;;;1.25;1.25;;;-0.30;99.90;;;;;;5074849;28;20290;-62
2022/01/12 04:04:53;;;;;;;1.20;1.20;;;-0.40;99.90;;;;;;5074191;28;20306;-63
2022/01/12 04:10:06;;;;;;;1.27;1.27;;;-0.50;99.90;;;;;;5074682;28;20639;-62
2022/01/12 04:12:33;;;;;;;1.23;1.23;;;-0.50;99.90;;;;;;5074567;28;20239;-62
2022/01/12 04:15:01;;;;;;;1.30;1.30;;;-0.50;99.90;;;;;;5073894;28;20227;-62
2022/01/12 04:17:28;;;;;;;1.20;1.20;;;-0.50;99.90;;;;;;5073354;28;20203;-61
2022/01/12 04:19:55;;;;;;;1.30;1.30;;;-0.60;99.90;;;;;;5073476;28;20218;-63
2022/01/12 04:25:06;;;;;;;1.20;1.20;;;-0.60;99.90;;;;;;5073224;28;20218;-61
2022/01/12 04:27:35;;;;;;;1.40;1.30;;;-0.60;99.90;;;;;;5073257;28;20230;-63
2022/01/12 04:30:04;;;;;;;1.30;1.30;;;-0.60;99.90;;;;;;5073520;28;20260;-62
2022/01/12 04:32:35;;;;;;;1.33;1.30;;;-0.50;99.90;;;;;;5074949;28;20267;-61
2022/01/12 04:35:02;;;;;;;1.30;1.30;;;-0.50;99.90;;;;;;5075437;28;20230;-61
2022/01/12 04:37:29;;;;;;;1.47;1.40;;;-0.50;99.90;;;;;;5074904;28;20849;-62
2022/01/12 04:39:56;;;;;;;1.20;1.20;;;-0.40;99.90;;;;;;5076298;28;20291;-62
2022/01/12 04:42:22;;;;;;;1.50;1.40;;;-0.40;99.90;;;;;;5073001;28;20310;-62
2022/01/12 04:44:59;;;;;;;1.38;1.38;;;-0.30;99.90;;;;;;5072546;28;20245;-61
2022/01/12 04:47:45;;;;;;;1.80;1.70;;;-0.30;99.90;;;;;;5072748;28;20673;-62
2022/01/12 04:50:12;;;;;;;1.60;1.50;;;-0.30;99.90;;;;;;5072879;28;20210;-62
2022/01/12 04:52:39;;;;;;;1.30;1.30;;;-0.30;99.90;;;;;;5072491;28;20302;-61
2022/01/12 04:55:06;;;;;;;1.67;1.57;;;-0.30;99.90;;;;;;5073299;28;20230;-64
2022/01/12 04:57:33;;;;;;;1.57;1.50;;;-0.30;99.90;;;;;;5075968;28;20305;-60
2022/01/12 05:00:06;;;;;;;1.38;1.38;;;-0.30;99.90;;;;;;5062799;28;20214;-63
2022/01/12 05:08:15;;;;;;;1.30;1.30;;;-0.40;99.90;;;;;;5054773;28;20562;-64
2022/01/12 05:13:28;;;;;;;1.23;1.23;;;-0.30;99.90;;;;;;5051779;28;20605;-63
2022/01/12 05:15:57;;;;;;;1.50;1.50;;;-0.30;99.90;;;;;;5052335;28;20247;-63
2022/01/12 05:18:25;;;;;;;1.50;1.40;;;-0.40;99.90;;;;;;5052452;28;20219;-61
2022/01/12 05:20:52;;;;;;;1.40;1.40;;;-0.40;99.90;;;;;;5051787;28;20393;-61
2022/01/12 05:23:19;;;;;;;1.23;1.23;;;-0.40;99.90;;;;;;5051976;28;20767;-63
2022/01/12 05:25:47;;;;;;;1.60;1.50;;;-0.40;99.90;;;;;;5069144;28;20704;-62
2022/01/12 05:28:14;;;;;;;1.40;1.40;;;-0.40;99.90;;;;;;5071963;28;20210;-64
2022/01/12 05:30:41;;;;;;;1.40;1.40;;;-0.50;99.90;;;;;;5070955;28;20207;-62
2022/01/12 05:33:08;;;;;;;1.40;1.40;;;-0.50;99.90;;;;;;5071511;28;20706;-62
2022/01/12 05:35:37;;;;;;;1.60;1.50;;;-0.50;99.90;;;;;;5071610;28;20251;-62
2022/01/12 05:38:08;;;;;;;1.30;1.30;;;-0.60;99.90;;;;;;5072234;28;20294;-63
2022/01/12 05:40:35;;;;;;;1.33;1.33;;;-0.60;99.90;;;;;;5072116;28;20213;-62
2022/01/12 05:43:02;;;;;;;1.33;1.33;;;-0.60;99.90;;;;;;5071758;28;20256;-64
2022/01/12 05:45:32;;;;;;;1.47;1.40;;;-0.60;99.90;;;;;;5072107;28;20205;-63
2022/01/12 05:50:46;;;;;;;1.50;1.50;;;-0.60;99.90;;;;;;5076246;28;20186;-62
2022/01/12 05:53:14;;;;;;;1.55;1.50;;;-0.60;99.90;;;;;;5076095;28;20334;-64
2022/01/12 05:55:41;;;;;;;1.73;1.65;;;-0.60;99.90;;;;;;5075408;28;20306;-63
2022/01/12 05:58:08;;;;;;;1.70;1.60;;;-0.60;99.90;;;;;;5076247;28;20206;-63
2022/01/12 06:00:36;;;;;;;1.42;1.42;;;-0.60;99.90;;;;;;5076170;28;20234;-63
2022/01/12 06:03:03;;;;;;;1.47;1.47;;;-0.60;99.90;;;;;;5072353;28;20283;-63
2022/01/12 06:05:30;;;;;;;1.52;1.42;;;-0.60;99.90;;;;;;5073147;28;20191;-62
2022/01/12 06:07:58;;;;;;;1.40;1.40;;;-0.60;99.90;;;;;;5075534;28;20323;-65
2022/01/12 06:10:25;;;;;;;1.42;1.42;;;-0.60;99.90;;;;;;5075477;28;20760;-63
2022/01/12 06:12:52;;;;;;;1.40;1.30;;;-0.60;99.90;;;;;;5075146;28;20644;-63
2022/01/12 06:15:19;;;;;;;1.60;1.50;;;-0.60;99.90;;;;;;5074426;28;20247;-64
2022/01/12 06:17:47;;;;;;;1.70;1.60;;;-0.60;99.90;;;;;;5075733;28;20199;-64
2022/01/12 06:20:14;;;;;;;1.70;1.60;;;-0.60;99.90;;;;;;5070114;28;20700;-62
2022/01/12 06:22:41;;;;;;;1.50;1.50;;;-0.50;99.90;;;;;;5065535;28;20630;-64
2022/01/12 06:25:14;;;;;;;1.40;1.40;;;-0.60;99.90;;;;;;5070254;28;20219;-62
2022/01/12 06:27:50;;;;;;;1.45;1.45;;;-0.60;99.90;;;;;;5076061;28;20188;-62
2022/01/12 06:33:00;;;;;;;1.63;1.52;;;-0.60;99.90;;;;;;5065833;28;20203;-62
2022/01/12 06:35:27;;;;;;;1.30;1.30;;;-0.50;99.90;;;;;;5069633;28;20207;-62
2022/01/12 06:37:55;;;;;;;1.70;1.60;;;-0.60;99.90;;;;;;5056240;28;20599;-63
2022/01/12 06:40:23;;;;;;;1.70;1.60;;;-0.60;99.90;;;;;;5055823;28;20244;-62
2022/01/12 06:42:50;;;;;;;1.70;1.60;;;-0.60;99.90;;;;;;5054650;28;20208;-63
2022/01/12 06:45:17;;;;;;;1.50;1.50;;;-0.60;99.90;;;;;;5055542;28;20204;-64
2022/01/12 06:47:44;;;;;;;1.70;1.60;;;-0.60;99.90;;;;;;5055093;28;20231;-64
2022/01/12 06:50:11;;;;;;;1.40;1.40;;;-0.60;99.90;;;;;;5055020;28;20214;-62
2022/01/12 06:52:38;;;;;;;1.50;1.50;;;-0.60;99.90;;;;;;5054967;28;20243;-62
2022/01/12 06:55:06;;;;;;;1.40;1.40;;;-0.60;99.90;;;;;;5055301;28;20306;-63
2022/01/12 06:57:34;;;;;;;1.63;1.53;;;-0.60;99.90;;;;;;5066824;28;20253;-63
2022/01/12 07:00:01;;;;;;;1.50;1.50;;;-0.60;99.90;;;;;;5071445;28;20289;-63
2022/01/12 07:02:28;;;;;;;1.70;1.60;;;-0.60;99.90;;;;;;5071923;28;20254;-63
2022/01/12 07:04:55;;;;;;;1.70;1.60;;;-0.60;99.90;;;;;;5074269;28;20225;-63
2022/01/12 07:07:23;;;;;;;1.90;1.80;;;-0.60;99.90;;;;;;5072736;28;20199;-63
2022/01/12 07:09:50;;;;;;;1.70;1.60;;;-0.60;99.90;;;;;;5069040;28;20195;-62
2022/01/12 07:12:18;;;;;;;1.40;1.40;;;-0.60;99.90;;;;;;5072629;28;20214;-62
2022/01/12 07:14:46;;;;;;;1.55;1.50;;;-0.60;99.90;;;;;;5071896;28;20221;-61
2022/01/12 07:17:13;;;;;;;1.80;1.70;;;-0.50;99.90;;;;;;5071782;28;20673;-63
2022/01/12 07:19:40;;;;;;;1.80;1.70;;;-0.60;99.90;;;;;;5076650;28;20258;-63
2022/01/12 07:22:07;;;;;;;1.60;1.57;;;-0.60;99.90;;;;;;5083409;28;20625;-63
2022/01/12 07:24:34;;;;;;;1.70;1.60;;;-0.60;99.90;;;;;;5077031;28;20239;-63
2022/01/12 07:27:01;;;;;;;1.60;1.50;;;-0.60;99.90;;;;;;5071889;28;20203;-63
2022/01/12 07:29:28;;;;;;;1.40;1.30;;;-0.50;99.90;;;;;;5072299;28;20207;-63
2022/01/12 07:31:57;;;;;;;1.40;1.40;;;-0.50;99.90;;;;;;5073976;28;20213;-63
2022/01/12 07:34:23;;;;;;;1.40;1.40;;;-0.50;99.90;;;;;;5073093;28;20239;-62
2022/01/12 07:36:50;;;;;;;1.70;1.60;;;-0.50;99.90;;;;;;5074300;28;20298;-63
2022/01/12 07:39:17;;;;;;;1.45;1.45;;;-0.50;99.90;;;;;;5074149;28;20238;-62
2022/01/12 07:41:44;;;;;;;1.40;1.40;;;-0.40;99.90;;;;;;5073017;28;20215;-62
2022/01/12 07:44:11;;;;;;;1.50;1.50;;;-0.40;99.90;;;;;;5073416;28;20230;-63
2022/01/12 07:46:39;;;;;;;1.55;1.50;;;-0.30;99.90;;;;;;5074454;28;20295;-64
2022/01/12 07:49:07;;;;;;;1.80;1.70;;;-0.20;99.90;;;;;;5074356;28;20242;-63
2022/01/12 07:51:34;;;;;;;1.50;1.50;;;-0.20;99.90;;;;;;5074149;28;20243;-63
2022/01/12 07:54:01;;;;;;;1.50;1.40;;;-0.10;99.90;;;;;;5077753;28;20246;-63
2022/01/12 07:56:28;;;;;;;1.50;1.50;;;-0.10;99.90;;;;;;5090377;28;20325;-62
2022/01/12 07:58:55;;;;;;;1.70;1.60;;;0.00;99.90;;;;;;5091101;28;20555;-63
2022/01/12 08:01:22;;;;;;;1.50;1.50;;;0.00;99.90;;;;;;5090561;28;20225;-62
2022/01/12 08:03:50;;;;;;;1.45;1.45;;;0.10;99.90;;;;;;5089328;28;20227;-63
2022/01/12 08:06:19;;;;;;;1.93;1.83;;;0.20;99.90;;;;;;5090342;28;20275;-62
2022/01/12 08:08:46;;;;;;;2.03;1.93;;;0.30;99.90;;;;;;5090305;28;20397;-62
2022/01/12 08:11:13;;;;;;;1.90;1.80;;;0.30;99.90;;;;;;5089160;28;20350;-62
2022/01/12 08:13:40;;;;;;;1.67;1.58;;;0.40;99.90;;;;;;5088600;28;20223;-62
2022/01/12 08:16:07;;;;;;;1.70;1.60;;;0.50;99.90;;;;;;5083840;28;20227;-63
2022/01/12 08:18:33;;;;;;;1.90;1.80;;;0.60;99.90;;;;;;5073839;28;20320;-62
2022/01/12 08:21:03;;;;;;;1.70;1.60;;;0.60;99.90;;;;;;5073140;28;20207;-62
2022/01/12 08:23:31;;;;;;;1.80;1.70;;;0.70;99.90;;;;;;5072553;28;20231;-62
2022/01/12 08:25:59;;;;;;;1.80;1.70;;;0.80;99.90;;;;;;5072749;28;20242;-63
2022/01/12 08:28:26;;;;;;;1.60;1.50;;;0.80;99.90;;;;;;5071900;28;20227;-64
2022/01/12 08:30:53;;;;;;;1.50;1.50;;;0.80;99.90;;;;;;5070961;28;20744;-63
2022/01/12 08:33:21;;;;;;;2.05;1.95;;;0.90;99.90;;;;;;5070652;28;20432;-63
2022/01/12 08:35:48;;;;;;;2.20;2.10;;;0.90;99.90;;;;;;5070706;28;20208;-63
2022/01/12 08:38:15;;;;;;;2.20;2.10;;;0.90;99.90;;;;;;5070556;28;20905;-64
2022/01/12 08:40:44;;;;;;;2.25;2.15;;;0.90;99.90;;;;;;5070730;28;20195;-63
2022/01/12 08:43:12;;;;;;;1.90;1.80;;;1.00;99.90;;;;;;5068501;28;20215;-65
2022/01/12 08:45:39;;;;;;;1.80;1.70;;;1.10;99.90;;;;;;5071681;28;20278;-62
2022/01/12 08:48:06;;;;;;;1.90;1.80;;;1.30;99.90;;;;;;5071470;28;20202;-63
2022/01/12 08:50:33;;;;;;;1.93;1.83;;;1.40;99.90;;;;;;5070769;28;20632;-62
2022/01/12 08:53:00;;;;;;;2.10;2.00;;;1.50;99.90;;;;;;5071220;28;20587;-63
2022/01/12 08:55:27;;;;;;;2.60;2.50;;;1.60;99.90;;;;;;5071173;28;20758;-63
2022/01/12 08:57:58;;;;;;;2.80;2.60;;;1.40;99.90;;;;;;5068357;28;20231;-63
2022/01/12 09:00:26;;;;;;;2.55;2.45;;;1.20;99.90;;;;;;5070645;28;20538;-62
2022/01/12 09:02:52;;;;;;;2.20;2.10;;;1.10;99.90;;;;;;5066367;28;20729;-62
2022/01/12 09:05:19;;;;;;;2.40;2.30;;;1.00;99.90;;;;;;5067217;28;20196;-64
2022/01/12 09:07:46;;;;;;;2.40;2.30;;;1.10;99.90;;;;;;5067979;28;20207;-62
2022/01/12 09:10:13;;;;;;;2.87;2.67;;;1.00;99.90;;;;;;5065665;28;20704;-62
2022/01/12 09:12:40;;;;;;;2.60;2.50;;;1.10;99.90;;;;;;5067132;28;20289;-62
2022/01/12 09:15:10;;;;;;;2.92;2.75;;;1.10;99.90;;;;;;5068223;28;20212;-63
2022/01/12 09:17:38;;;;;;;2.55;2.45;;;1.10;99.90;;;;;;5080324;28;20229;-64
2022/01/12 09:20:07;;;;;;;2.57;2.47;;;1.00;99.90;;;;;;5076009;28;20238;-62
2022/01/12 09:22:34;;;;;;;2.40;2.30;;;1.00;99.90;;;;;;5075476;28;20679;-61
2022/01/12 09:25:01;;;;;;;2.73;2.53;;;1.10;99.90;;;;;;5081287;28;20235;-62
2022/01/12 09:27:28;;;;;;;2.90;2.70;;;1.20;99.90;;;;;;5068290;28;20688;-62
2022/01/12 09:29:54;;;;;;;2.70;2.60;;;1.30;99.90;;;;;;5061023;28;20207;-63
2022/01/12 09:32:23;;;;;;;2.40;2.30;;;1.40;99.90;;;;;;5073285;28;20258;-62
2022/01/12 09:34:50;;;;;;;2.80;2.60;;;1.50;99.90;;;;;;5076760;28;20233;-64
2022/01/12 09:37:16;;;;;;;2.13;2.03;;;1.50;99.90;;;;;;5066845;28;20605;-64
2022/01/12 09:39:43;;;;;;;2.27;2.17;;;1.50;99.90;;;;;;5070484;28;20195;-63
2022/01/12 09:42:10;;;;;;;2.50;2.40;;;1.60;99.90;;;;;;5064300;28;20233;-63
2022/01/12 09:44:43;;;;;;;2.15;2.05;;;1.70;99.90;;;;;;5061201;28;20340;-63
2022/01/12 09:47:10;;;;;;;2.35;2.25;;;1.80;99.90;;;;;;5061263;28;20195;-62
2022/01/12 09:49:39;;;;;;;2.00;1.90;;;1.90;99.90;;;;;;5067909;28;20407;-65
2022/01/12 09:52:06;;;;;;;2.20;2.10;;;2.00;99.90;;;;;;5070546;28;20592;-64
2022/01/12 09:54:33;;;;;;;2.40;2.30;;;2.10;99.90;;;;;;5066817;28;20657;-64
2022/01/12 09:57:00;;;;;;;2.30;2.20;;;2.10;99.90;;;;;;5067270;28;20711;-62
2022/01/12 09:59:28;;;;;;;2.23;2.13;;;2.10;99.90;;;;;;5070610;28;20263;-63
2022/01/12 10:01:55;;;;;;;2.30;2.20;;;2.00;99.90;;;;;;5069466;28;20642;-63
2022/01/12 10:04:24;;;;;;;2.30;2.20;;;2.10;99.90;;;;;;5068179;28;20250;-63
2022/01/12 10:06:53;;;;;;;2.33;2.20;;;2.30;99.90;;;;;;5070217;28;20195;-65
2022/01/12 10:09:24;;;;;;;2.40;2.30;;;2.40;99.90;;;;;;5068278;28;20290;-63
2022/01/12 10:11:53;;;;;;;5.65;5.35;;;2.40;99.90;;;;;;5070070;28;20722;-63
2022/01/12 10:14:21;;;;;;;3.77;3.57;;;2.60;99.90;;;;;;5070358;28;20251;-64
2022/01/12 10:16:52;;;;;;;2.70;2.60;;;2.70;99.90;;;;;;5070633;28;20219;-62
2022/01/12 10:19:26;;;;;;;2.70;2.50;;;2.80;99.90;;;;;;5068458;28;20279;-63
2022/01/12 10:21:55;;;;;;;2.50;2.40;;;2.80;99.90;;;;;;5070011;28;20203;-63
2022/01/12 10:24:22;;;;;;;2.20;2.10;;;2.80;99.90;;;;;;5069383;28;20224;-64
2022/01/12 10:26:50;;;;;;;2.50;2.40;;;2.80;99.90;;;;;;5063032;28;20195;-63
2022/01/12 10:29:18;;;;;;;2.50;2.30;;;2.80;99.90;;;;;;5066898;28;20199;-62
2022/01/12 10:31:48;;;;;;;2.70;2.58;;;2.90;99.90;;;;;;5069901;28;20230;-64
2022/01/12 10:34:15;;;;;;;2.50;2.40;;;2.90;99.90;;;;;;5068917;28;20340;-62
2022/01/12 10:36:44;;;;;;;2.90;2.80;;;2.90;99.90;;;;;;5071323;28;20268;-62
2022/01/12 10:39:15;;;;;;;2.73;2.63;;;2.80;99.90;;;;;;5071783;28;20211;-63
2022/01/12 10:41:53;;;;;;;2.87;2.77;;;2.80;99.90;;;;;;5069850;28;20199;-63
2022/01/12 10:44:21;;;;;;;2.60;2.50;;;2.90;99.90;;;;;;5070008;28;20233;-63
2022/01/12 10:46:48;;;;;;;2.80;2.60;;;2.90;99.90;;;;;;5073889;28;20284;-62
2022/01/12 10:49:20;;;;;;;2.50;2.40;;;3.00;99.90;;;;;;5072113;28;20282;-61
2022/01/12 10:51:55;;;;;;;2.58;2.47;;;3.00;99.90;;;;;;5073187;28;20206;-63
2022/01/12 10:54:24;;;;;;;2.90;2.80;;;3.00;99.90;;;;;;5069686;28;20659;-63
2022/01/12 10:56:51;;;;;;;2.50;2.40;;;3.20;99.90;;;;;;5066350;28;20220;-62
2022/01/12 10:59:19;;;;;;;2.77;2.67;;;3.20;99.90;;;;;;5073978;28;20264;-62
2022/01/12 11:01:46;;;;;;;2.60;2.50;;;3.20;99.90;;;;;;5073823;28;20290;-61
2022/01/12 11:04:14;;;;;;;2.57;2.40;;;3.30;99.90;;;;;;5064887;28;20345;-63
2022/01/12 11:06:41;;;;;;;2.70;2.60;;;3.40;99.90;;;;;;5062751;28;20203;-62
2022/01/12 11:09:08;;;;;;;2.40;2.30;;;3.40;99.90;;;;;;5070064;28;20214;-63
2022/01/12 11:11:36;;;;;;;2.30;2.20;;;3.40;99.90;;;;;;5064342;28;20208;-62
2022/01/12 11:14:03;;;;;;;2.50;2.40;;;3.40;99.90;;;;;;5068536;28;20225;-63
2022/01/12 11:16:30;;;;;;;2.40;2.30;;;3.40;99.90;;;;;;5068800;28;20649;-62
2022/01/12 11:19:00;;;;;;;2.50;2.40;;;3.50;99.90;;;;;;5072109;28;20215;-62
2022/01/12 11:21:41;;;;;;;2.40;2.30;;;3.50;99.90;;;;;;5070076;28;20200;-62
2022/01/12 11:24:11;;;;;;;2.40;2.30;;;3.40;99.90;;;;;;5073939;28;20245;-63
2022/01/12 11:26:48;;;;;;;2.43;2.33;;;3.30;99.90;;;;;;5075795;28;20203;-62
2022/01/12 11:29:24;;;;;;;2.50;2.40;;;3.40;99.90;;;;;;5074001;28;20206;-62
2022/01/12 11:31:52;;;;;;;2.30;2.20;;;3.50;99.90;;;;;;5076783;28;20198;-63
2022/01/12 11:34:19;;;;;;;2.43;2.33;;;3.40;99.90;;;;;;5077280;28;20296;-62
2022/01/12 11:36:46;;;;;;;2.60;2.50;;;3.30;99.90;;;;;;5074703;28;20223;-62
2022/01/12 11:39:18;;;;;;;2.50;2.40;;;3.30;99.90;;;;;;5068766;28;20218;-62
2022/01/12 11:41:49;;;;;;;2.30;2.20;;;3.40;99.90;;;;;;5070002;28;20242;-62
2022/01/12 11:44:18;;;;;;;2.47;2.37;;;3.40;99.90;;;;;;5060531;28;20219;-62
2022/01/12 11:46:48;;;;;;;2.10;2.00;;;3.50;99.90;;;;;;5063097;28;20637;-63
2022/01/12 11:49:27;;;;;;;2.20;2.10;;;3.70;99.90;;;;;;5070008;28;20199;-62
2022/01/12 11:51:55;;;;;;;2.10;2.00;;;3.80;99.90;;;;;;5068992;28;20225;-62
2022/01/12 11:54:22;;;;;;;2.20;2.10;;;3.90;99.90;;;;;;5069263;28;20229;-62
2022/01/12 11:56:57;;;;;;;2.00;1.90;;;4.00;99.90;;;;;;5069383;28;20230;-62
2022/01/12 11:59:26;;;;;;;1.93;1.83;;;4.10;99.90;;;;;;5074043;28;20293;-62
2022/01/12 12:01:55;;;;;;;2.20;2.10;;;4.20;99.90;;;;;;5074647;28;20234;-64
2022/01/12 12:04:25;;;;;;;1.90;1.80;;;4.20;99.90;;;;;;5074228;28;20592;-62
2022/01/12 12:07:06;;;;;;;1.80;1.70;;;4.30;99.90;;;;;;5072006;28;20215;-62
2022/01/12 12:09:43;;;;;;;1.77;1.67;;;4.40;99.90;;;;;;5071766;28;20276;-62
2022/01/12 12:12:17;;;;;;;2.30;2.20;;;4.40;99.90;;;;;;5073350;28;20246;-63
2022/01/12 12:14:46;;;;;;;2.30;2.20;;;4.30;99.90;;;;;;5073299;28;20231;-64
2022/01/12 12:17:13;;;;;;;2.23;2.13;;;4.20;99.90;;;;;;5074226;28;20742;-65
2022/01/12 12:19:40;;;;;;;2.00;1.90;;;4.20;99.90;;;;;;5074733;28;20665;-61
2022/01/12 12:22:13;;;;;;;2.40;2.30;;;4.30;99.90;;;;;;5074771;28;20203;-63
2022/01/12 12:24:41;;;;;;;2.73;2.63;;;4.20;99.90;;;;;;5073691;28;20224;-63
2022/01/12 12:27:10;;;;;;;2.50;2.40;;;4.10;99.90;;;;;;5073960;28;20192;-62
2022/01/12 12:29:39;;;;;;;2.60;2.50;;;4.00;99.90;;;;;;5073359;28;20690;-63
2022/01/12 12:32:12;;;;;;;2.53;2.43;;;3.80;99.90;;;;;;5072516;28;20195;-64
2022/01/12 12:34:40;;;;;;;2.20;2.10;;;3.80;99.90;;;;;;5071568;28;20229;-63
2022/01/12 12:37:09;;;;;;;2.50;2.40;;;3.70;99.90;;;;;;5072055;28;20763;-63
2022/01/12 12:39:38;;;;;;;2.85;2.75;;;3.70;99.90;;;;;;5069929;28;20199;-62
2022/01/12 12:42:14;;;;;;;2.57;2.47;;;3.60;99.90;;;;;;5072659;28;20256;-63
2022/01/12 12:44:43;;;;;;;2.67;2.57;;;3.60;99.90;;;;;;5069889;28;20221;-62
2022/01/12 12:47:13;;;;;;;2.63;2.53;;;3.60;99.90;;;;;;5072771;28;20195;-63
2022/01/12 12:49:52;;;;;;;2.65;2.55;;;3.60;99.90;;;;;;5072324;28;20202;-62
2022/01/12 12:52:28;;;;;;;2.87;2.77;;;3.60;99.90;;;;;;5069411;28;20222;-63
2022/01/12 12:54:56;;;;;;;2.63;2.53;;;3.60;99.90;;;;;;5070246;28;20221;-62
2022/01/12 12:57:24;;;;;;;2.70;2.60;;;3.60;99.90;;;;;;5072402;28;20277;-63
2022/01/12 13:00:07;;;;;;;2.60;2.50;;;3.50;99.90;;;;;;5069388;28;20218;-64
2022/01/12 13:02:36;;;;;;;2.20;2.10;;;3.50;99.90;;;;;;5068503;28;20291;-62
2022/01/12 13:05:05;;;;;;;2.60;2.40;;;3.60;99.90;;;;;;5073158;28;20716;-63
2022/01/12 13:07:38;;;;;;;2.60;2.40;;;3.50;99.90;;;;;;5081842;28;20229;-64
2022/01/12 13:10:06;;;;;;;2.27;2.17;;;3.60;99.90;;;;;;5071848;28;20250;-63
2022/01/12 13:12:37;;;;;;;2.20;2.10;;;3.60;99.90;;;;;;5071281;28;20314;-63
2022/01/12 13:15:08;;;;;;;2.40;2.30;;;3.60;99.90;;;;;;5059841;28;20310;-63
2022/01/12 13:17:37;;;;;;;2.40;2.30;;;3.70;99.90;;;;;;5070163;28;20322;-62
2022/01/12 13:22:51;;;;;;;2.20;2.10;;;3.70;99.90;;;;;;5061973;28;20282;-63
2022/01/12 13:25:19;;;;;;;2.10;2.00;;;3.70;99.90;;;;;;5058192;28;20658;-61
2022/01/12 13:27:50;;;;;;;2.30;2.20;;;3.70;99.90;;;;;;5061992;28;20203;-65
2022/01/12 13:30:27;;;;;;;2.53;2.43;;;3.80;99.90;;;;;;5064151;28;20206;-63
2022/01/12 13:32:55;;;;;;;2.40;2.30;;;3.80;99.90;;;;;;5065340;28;20206;-62
2022/01/12 13:35:28;;;;;;;2.60;2.40;;;3.70;99.90;;;;;;5064156;28;20302;-62
2022/01/12 13:37:57;;;;;;;2.37;2.27;;;3.70;99.90;;;;;;5065163;28;20855;-62
2022/01/12 13:40:24;;;;;;;2.70;2.60;;;3.70;99.90;;;;;;5069151;28;20226;-63
2022/01/12 13:42:53;;;;;;;3.10;2.90;;;3.70;99.90;;;;;;5058354;28;20204;-62
2022/01/12 13:45:25;;;;;;;2.60;2.50;;;4.00;99.90;;;;;;5049688;28;20204;-61
2022/01/12 13:47:59;;;;;;;2.53;2.43;;;4.20;99.90;;;;;;5053555;28;20199;-64
2022/01/12 13:50:36;;;;;;;2.50;2.40;;;4.40;99.90;;;;;;5049552;28;20282;-62
2022/01/12 13:53:04;;;;;;;2.80;2.70;;;4.50;99.90;;;;;;5050506;28;20634;-64
2022/01/12 13:55:31;;;;;;;2.60;2.50;;;4.50;99.90;;;;;;5050573;28;20200;-61
2022/01/12 13:58:04;;;;;;;2.60;2.50;;;4.40;99.90;;;;;;5048650;28;20794;-62
2022/01/12 14:00:34;;;;;;;2.30;2.20;;;4.30;99.90;;;;;;5050027;28;20279;-63
2022/01/12 14:03:01;;;;;;;2.33;2.13;;;4.30;99.90;;;;;;5048649;28;20291;-62
2022/01/12 14:05:37;;;;;;;2.40;2.30;;;4.20;99.90;;;;;;5063668;28;20283;-63
2022/01/12 14:08:11;;;;;;;2.93;2.70;;;4.30;99.90;;;;;;5067207;28;20231;-63
2022/01/12 14:10:38;;;;;;;2.40;2.30;;;4.30;99.90;;;;;;5073431;28;20665;-63